Aérodrome :
LOGIN :

S'inscrire | Disclaimer

   EN    FR    IT 

 










Légende :    VFR   VFR Marginal   IFR   IFR Intensif   IFR Très Intensif
Visi : 
Plafond : 
>= 8 km
>= 3000ft
5 à 8 km
1000 à 3000 ft
1500m à 5 km
500 à 1000 ft
800 à 1500m
200 à 500 ft
< 800m
< 200 ft
Symboles :   Orages  Brouillard  Fortes neiges  Fortes précipitations  Vent > 20 kt
SIGMETs :   Divers  Orages  Givrage  Turbulence  Onde Orograph.  Cendres Volcan.







- Altitude de l'aérodrome : 383 ft
- Code IATA : UDJ


UKLU - Uzhhorod

DERNIER METAR :
  • 181600Z 34003MPS 300V030 9999 NSC 30/13 Q1017 NOSIG

METARs EXPIRÉS :
  • 181500Z 28004MPS 250V320 9999 NSC 32/12 Q1016 R10/090070 NOSIG
  • 181430Z 29004MPS 240V350 9999 NSC 31/12 Q1016 R10/090070 NOSIG
  • 181400Z 29004MPS 250V320 9999 NSC 31/12 Q1017 R10/090070 NOSIG
  • 181330Z 29004MPS 9999 SCT043 29/14 Q1017 R10/090070 NOSIG

TAF TAF UKLU
Valide du 18 à 15h jusqu'au 19 à 00h UTC


181406Z 1815/1824 29003MPS 9999 NSC TX31/1815Z TN17/1824Z
TEMPO 1815/1821 3305G10MPS 2000 -TSRA SCT040CB
Pas de NOTAMs connus pour ce terrain.



MET'MAP, la Météo Aéronautique d'un coup d'oeil ! - Copyright ORBIFLY Décembre 2007 - Disclaimer

ORBIFLY MET'MAP TEAM :

Programmation & Développement : Alexandra Zaïnal
Conception & Développement : Baudouin d'Aumeries
Co-Programmation & Développement : Marc-Olivier Méhu
Soutien technique & logistique : Manuel Goepfert

Contact : metmap@orbifly.com




SOURCES & CREDITS :

   NOAA